Terminal Aerodrome Forecast
Issued by NWS Medford, OR

Home | Current Version | Previous Version | Text Only | Print | Product List | Glossary On
Versions: 1 2 3 4 5 6 7 8 9 10 11 12 13 14 15 16 17 18 19 20 21
000
FTUS46 KMFR 080736 AAA
TAFMFR
TAF AMD
KMFR 080736Z 0808/0906 VRB03KT P6SM FEW060 SCT250
     FM082200 32008KT P6SM VCTS BKN060CB BKN250
     FM090400 VRB03KT P6SM SCT060 BKN250=

USA.gov is the U.S. government's official web portal to all federal, state and local government web resources and services.